Almyros — 9HA2510 — position and weather

sailwx.info

Track history (hours):
 
Tides and Currents Weather Stations Pressure Air Temp Water Temp Dewpoint Dewpoint Depression Visibility Wind Speed Wind Dir Waves Ship Positions

Almyros

Last reported at 2015-Mar-24 11:24 UTC. Time now 2015-Mar-29 07:29 UTC.
Position N 36°07' W 005°08'.

Length 189 m; draft 7 m.

Type: Cargo ship. MMSI: 248779000.

Date/timePositionNaut miles runAvg speedWind from/ knotsBaromVisibWave heightAir tempDewpointWater temp
2015-Mar-24 11:24N 36°07' W 005°08'258 6.6
2015-Mar-22 20:14N 36°43' E 000°10'6 8.2
2015-Mar-22 19:29N 36°44' E 000°17'184 7.3
2015-Mar-21 18:13N 37°09' E 004°05'  
2015-Mar-19 02:20N 36°39' E 013°37'7 8.7
2015-Mar-19 01:33N 36°37' E 013°45'9 8.5
2015-Mar-19 00:33N 36°35' E 013°55'9 8.6
2015-Mar-18 23:33N 36°33' E 014°06'9 8.8
2015-Mar-18 22:33N 36°31' E 014°16'9 8.8
2015-Mar-18 21:33N 36°30' E 014°27'  
Track history (hours):
 
Tides and Currents Weather Stations Pressure Air Temp Water Temp Dewpoint Dewpoint Depression Visibility Wind Speed Wind Dir Waves Ship Positions

Almyros

Last reported at 2015-Mar-24 11:24 UTC. Time now 2015-Mar-29 07:29 UTC.
Position N 36°07' W 005°08'.

Length 189 m; draft 7 m.

Type: Cargo ship. MMSI: 248779000.

Date/timePositionNaut miles runAvg speedWind from/ knotsBaromVisibWave heightAir tempDewpointWater temp
2015-Mar-24 11:24N 36°07' W 005°08'258 6.6
2015-Mar-22 20:14N 36°43' E 000°10'6 8.2
2015-Mar-22 19:29N 36°44' E 000°17'184 7.3
2015-Mar-21 18:13N 37°09' E 004°05'  
2015-Mar-19 02:20N 36°39' E 013°37'7 8.7
2015-Mar-19 01:33N 36°37' E 013°45'9 8.5
2015-Mar-19 00:33N 36°35' E 013°55'9 8.6
2015-Mar-18 23:33N 36°33' E 014°06'9 8.8
2015-Mar-18 22:33N 36°31' E 014°16'9 8.8
2015-Mar-18 21:33N 36°30' E 014°27'  

Dump ship's entire track history